Time;durP1;ratioP1;P1;durP2;ratioP2;P2;SDS_P1;SDS_P2;PMS_P1;PMS_P2;Temp;Humidity;BMP_temperature;BMP_pressure;BME280_temperature;BME280_humidity;BME280_pressure;Samples;Min_cycle;Max_cycle;Signal;HPM_P1;HPM_P2
2022/01/02 00:00:47;;;;;;;14.32;10.40;;;9.70;99.90;;;;;;5050253;28;20036;-55
2022/01/02 00:03:35;;;;;;;13.20;9.48;;;9.60;99.90;;;;;;5050029;28;20511;-59
2022/01/02 00:06:27;;;;;;;12.55;8.65;;;9.60;99.90;;;;;;5056011;28;20503;-56
2022/01/02 00:09:34;;;;;;;11.38;8.85;;;9.70;99.90;;;;;;5056357;28;20071;-56
2022/01/02 00:12:25;;;;;;;10.27;7.78;;;9.70;99.90;;;;;;5046663;28;20463;-56
2022/01/02 00:15:11;;;;;;;11.02;8.32;;;9.70;99.90;;;;;;5044100;28;20028;-58
2022/01/02 00:18:04;;;;;;;14.27;8.75;;;9.80;99.90;;;;;;5055933;28;20040;-58
2022/01/02 00:20:49;;;;;;;13.52;8.18;;;9.80;99.90;;;;;;5055886;28;20094;-58
2022/01/02 00:23:48;;;;;;;10.88;8.07;;;9.70;99.90;;;;;;5051754;28;20075;-59
2022/01/02 00:26:41;;;;;;;12.48;8.65;;;9.70;99.90;;;;;;5052502;28;20041;-59
2022/01/02 00:29:25;;;;;;;13.60;8.48;;;9.70;99.90;;;;;;5052633;28;20075;-52
2022/01/02 00:32:11;;;;;;;12.65;9.40;;;9.70;99.90;;;;;;5053132;28;20542;-58
2022/01/02 00:34:57;;;;;;;11.75;8.30;;;9.80;99.90;;;;;;5055777;28;20514;-56
2022/01/02 00:37:41;;;;;;;11.27;8.52;;;9.90;99.90;;;;;;5054128;28;20423;-56
2022/01/02 00:40:25;;;;;;;15.53;8.40;;;9.80;99.90;;;;;;5055742;28;20094;-57
2022/01/02 00:43:13;;;;;;;11.02;7.60;;;9.90;99.90;;;;;;5053355;28;20400;-58
2022/01/02 00:46:03;;;;;;;12.20;7.35;;;9.80;99.90;;;;;;5054645;28;20044;-58
2022/01/02 00:48:54;;;;;;;9.90;8.10;;;9.90;99.90;;;;;;5056659;28;20076;-57
2022/01/02 00:51:47;;;;;;;10.15;6.75;;;9.90;99.90;;;;;;5054678;28;20434;-57
2022/01/02 00:54:36;;;;;;;9.85;7.45;;;10.00;99.90;;;;;;5053216;28;20178;-58
2022/01/02 00:57:30;;;;;;;12.35;7.43;;;10.00;99.90;;;;;;5052308;28;20047;-56
2022/01/02 01:00:16;;;;;;;10.55;6.95;;;10.00;99.90;;;;;;5054564;28;20089;-57
2022/01/02 01:03:07;;;;;;;13.23;7.88;;;10.00;99.90;;;;;;5054107;28;20028;-57
2022/01/02 01:05:53;;;;;;;12.63;7.60;;;10.00;99.90;;;;;;5053621;28;20032;-55
2022/01/02 01:08:40;;;;;;;11.98;7.13;;;9.90;99.90;;;;;;5052672;28;20123;-58
2022/01/02 01:11:27;;;;;;;11.00;7.95;;;10.00;99.90;;;;;;5050808;28;20403;-57
2022/01/02 01:14:11;;;;;;;10.85;7.10;;;10.00;99.90;;;;;;5050893;28;20639;-58
2022/01/02 01:16:57;;;;;;;11.00;7.45;;;9.90;99.90;;;;;;5058466;28;20040;-57
2022/01/02 01:19:41;;;;;;;12.90;7.95;;;9.90;99.90;;;;;;5055066;28;20052;-55
2022/01/02 01:22:27;;;;;;;11.05;7.47;;;10.00;99.90;;;;;;5054895;28;20031;-58
2022/01/02 01:25:16;;;;;;;10.43;7.80;;;9.90;99.90;;;;;;5053549;28;20106;-56
2022/01/02 01:28:01;;;;;;;11.88;7.93;;;9.90;99.90;;;;;;5055950;28;20090;-59
2022/01/02 01:30:48;;;;;;;12.52;8.68;;;9.80;99.90;;;;;;5052235;28;20029;-58
2022/01/02 01:33:32;;;;;;;11.38;7.88;;;9.80;99.90;;;;;;5049365;28;20044;-59
2022/01/02 01:36:16;;;;;;;10.68;7.38;;;9.90;99.90;;;;;;5049246;28;20174;-58
2022/01/02 01:39:00;;;;;;;9.70;6.80;;;9.90;99.90;;;;;;5051934;28;20032;-59
2022/01/02 01:41:46;;;;;;;9.55;6.90;;;9.90;99.90;;;;;;5052257;28;20036;-59
2022/01/02 01:47:34;;;;;;;10.82;7.88;;;9.80;99.90;;;;;;5059261;28;20032;-59
2022/01/02 01:50:20;;;;;;;12.00;7.60;;;10.00;99.90;;;;;;5050779;28;20056;-56
2022/01/02 01:53:05;;;;;;;10.00;7.07;;;9.90;99.90;;;;;;5050862;28;20076;-57
2022/01/02 01:55:49;;;;;;;9.75;8.32;;;9.80;99.90;;;;;;5048168;28;20082;-58
2022/01/02 01:58:34;;;;;;;12.13;8.27;;;9.80;99.90;;;;;;5041358;28;20039;-57
2022/01/02 02:01:18;;;;;;;12.02;7.45;;;9.70;99.90;;;;;;5053079;28;20067;-57
2022/01/02 02:04:02;;;;;;;12.37;7.60;;;9.70;99.90;;;;;;5052538;28;20036;-56
2022/01/02 02:06:47;;;;;;;10.68;7.45;;;9.80;99.90;;;;;;5053861;28;20364;-56
2022/01/02 02:09:43;;;;;;;10.15;6.85;;;9.80;99.90;;;;;;5038403;28;20102;-54
2022/01/02 02:12:28;;;;;;;10.40;7.35;;;9.80;99.90;;;;;;5049395;28;20083;-55
2022/01/02 02:15:14;;;;;;;9.13;7.00;;;9.80;99.90;;;;;;5053109;28;20079;-54
2022/01/02 02:17:58;;;;;;;10.07;6.80;;;9.80;99.90;;;;;;5036571;28;20082;-53
2022/01/02 02:20:43;;;;;;;10.50;6.15;;;9.80;99.90;;;;;;5053764;28;20404;-56
2022/01/02 02:23:27;;;;;;;9.60;6.65;;;9.70;99.90;;;;;;5039563;28;20048;-57
2022/01/02 02:26:11;;;;;;;10.87;6.20;;;9.70;99.90;;;;;;5053941;28;20032;-56
2022/01/02 02:28:56;;;;;;;11.10;6.63;;;9.70;99.90;;;;;;5053175;28;20036;-57
2022/01/02 02:31:41;;;;;;;9.55;6.53;;;9.70;99.90;;;;;;5052903;28;20036;-55
2022/01/02 02:34:26;;;;;;;7.55;6.30;;;9.70;99.90;;;;;;5050004;28;20079;-57
2022/01/02 02:37:10;;;;;;;11.68;6.93;;;9.80;99.90;;;;;;5052743;28;20389;-56
2022/01/02 02:39:54;;;;;;;10.73;6.28;;;9.80;99.90;;;;;;5036182;28;20039;-58
2022/01/02 02:42:54;;;;;;;10.73;6.40;;;9.80;99.90;;;;;;5053886;28;20048;-56
2022/01/02 02:49:01;;;;;;;6.65;5.40;;;9.90;99.90;;;;;;5054108;28;20040;-57
2022/01/02 02:51:56;;;;;;;7.35;5.32;;;10.00;99.90;;;;;;5056124;28;20052;-57
2022/01/02 02:54:42;;;;;;;7.82;5.40;;;10.00;99.90;;;;;;5054124;28;20048;-58
2022/01/02 02:57:27;;;;;;;8.65;5.63;;;10.00;99.90;;;;;;5053390;28;20040;-59
2022/01/02 03:00:12;;;;;;;9.93;5.55;;;9.90;99.90;;;;;;5053732;28;20135;-55
2022/01/02 03:02:56;;;;;;;;;;;9.80;99.90;;;;;;5052183;28;20087;-56
2022/01/02 03:05:40;;;;;;;9.73;5.50;;;9.80;99.90;;;;;;5052381;28;19936;-58
2022/01/02 03:08:26;;;;;;;8.43;5.83;;;9.90;99.90;;;;;;5052974;28;20040;-56
2022/01/02 03:11:14;;;;;;;6.45;5.00;;;9.90;99.90;;;;;;5052976;28;20079;-56
2022/01/02 03:13:59;;;;;;;8.10;5.18;;;9.80;99.90;;;;;;5053019;28;20047;-56
2022/01/02 03:16:43;;;;;;;6.53;5.05;;;9.80;99.90;;;;;;5053458;28;20507;-55
2022/01/02 03:19:27;;;;;;;7.30;5.18;;;9.80;99.90;;;;;;5037928;28;20051;-61
2022/01/02 03:22:12;;;;;;;8.87;4.83;;;9.80;99.90;;;;;;5053238;28;20470;-59
2022/01/02 03:24:56;;;;;;;8.95;4.70;;;9.80;99.90;;;;;;5052567;28;20372;-58
2022/01/02 03:27:41;;;;;;;5.97;4.53;;;9.80;99.90;;;;;;5053256;28;20144;-57
2022/01/02 03:30:25;;;;;;;6.43;4.60;;;9.80;99.90;;;;;;5032918;28;20087;-57
2022/01/02 03:33:09;;;;;;;7.00;4.93;;;9.80;99.90;;;;;;5052386;28;20086;-54
2022/01/02 03:35:54;;;;;;;8.95;5.32;;;9.90;99.90;;;;;;5053372;28;20098;-57
2022/01/02 03:38:38;;;;;;;8.80;4.72;;;9.90;99.90;;;;;;5053158;28;20075;-56
2022/01/02 03:41:22;;;;;;;8.83;5.50;;;9.90;99.90;;;;;;5056681;28;20047;-60
2022/01/02 03:44:06;;;;;;;6.10;4.77;;;9.90;99.90;;;;;;5057118;28;20027;-57
2022/01/02 03:46:50;;;;;;;5.95;4.88;;;9.90;99.90;;;;;;5056861;28;20615;-57
2022/01/02 03:49:34;;;;;;;6.43;4.87;;;9.90;99.90;;;;;;5056631;28;20341;-56
2022/01/02 03:52:18;;;;;;;6.93;4.63;;;9.90;99.90;;;;;;5056875;28;20032;-58
2022/01/02 03:55:03;;;;;;;7.40;4.95;;;9.90;99.90;;;;;;5056366;28;20404;-59
2022/01/02 03:57:48;;;;;;;;;;;9.90;99.90;;;;;;5041263;28;20044;-57
2022/01/02 04:00:32;;;;;;;8.98;5.65;;;9.90;99.90;;;;;;5055495;28;20314;-57
2022/01/02 04:03:16;;;;;;;6.85;4.72;;;9.90;99.90;;;;;;5055806;28;20094;-58
2022/01/02 04:06:00;;;;;;;7.28;4.75;;;9.80;99.90;;;;;;5056659;28;20391;-56
2022/01/02 04:08:44;;;;;;;7.32;4.80;;;9.90;99.90;;;;;;5056605;28;20082;-56
2022/01/02 04:11:28;;;;;;;10.35;5.68;;;9.90;99.90;;;;;;5057719;28;20052;-57
2022/01/02 04:14:13;;;;;;;5.25;4.13;;;9.90;99.90;;;;;;5057371;28;20040;-57
2022/01/02 04:16:57;;;;;;;6.28;4.93;;;9.90;99.90;;;;;;5056991;28;20543;-57
2022/01/02 04:19:41;;;;;;;6.30;4.50;;;9.90;99.90;;;;;;5057164;28;20066;-54
2022/01/02 04:22:26;;;;;;;9.67;4.67;;;9.90;99.90;;;;;;5056356;28;20079;-56
2022/01/02 04:25:12;;;;;;;7.53;4.97;;;10.00;99.90;;;;;;5055432;28;20287;-60
2022/01/02 04:27:56;;;;;;;8.50;5.38;;;10.00;99.90;;;;;;5056365;28;20032;-53
2022/01/02 04:30:40;;;;;;;8.80;5.28;;;10.00;99.90;;;;;;5056434;28;20095;-55
2022/01/02 04:33:24;;;;;;;10.38;4.90;;;10.00;99.90;;;;;;5055407;28;20043;-58
2022/01/02 04:36:08;;;;;;;7.60;4.63;;;10.00;99.90;;;;;;5055877;28;20111;-55
2022/01/02 04:38:52;;;;;;;7.50;5.45;;;10.00;99.90;;;;;;5054486;28;20113;-60
2022/01/02 04:41:36;;;;;;;6.20;4.80;;;10.00;99.90;;;;;;5055778;28;20114;-56
2022/01/02 04:44:20;;;;;;;8.45;5.20;;;10.10;99.90;;;;;;5055470;28;20404;-57
2022/01/02 04:47:04;;;;;;;8.23;5.50;;;10.10;99.90;;;;;;5055857;28;20112;-59
2022/01/02 04:49:49;;;;;;;8.73;5.53;;;10.10;99.90;;;;;;5054768;28;20075;-57
2022/01/02 04:52:33;;;;;;;7.50;5.32;;;10.10;99.90;;;;;;5051558;28;20043;-56
2022/01/02 04:55:17;;;;;;;8.25;5.50;;;10.10;99.90;;;;;;5055378;28;20043;-55
2022/01/02 04:58:02;;;;;;;9.25;6.43;;;10.10;99.90;;;;;;5055227;28;20408;-55
2022/01/02 05:00:46;;;;;;;8.88;7.07;;;10.10;99.90;;;;;;5055459;28;20527;-57
2022/01/02 05:03:30;;;;;;;8.32;6.32;;;10.10;99.90;;;;;;5055110;28;20091;-56
2022/01/02 05:06:14;;;;;;;6.68;5.45;;;10.20;99.90;;;;;;5054995;28;20083;-59
2022/01/02 05:08:58;;;;;;;10.50;5.73;;;10.10;99.90;;;;;;5056130;28;20060;-56
2022/01/02 05:11:42;;;;;;;9.52;5.90;;;10.20;99.90;;;;;;5056519;28;20330;-58
2022/01/02 05:14:27;;;;;;;10.15;5.28;;;10.20;99.90;;;;;;5054768;28;20119;-57
2022/01/02 05:17:11;;;;;;;7.47;4.60;;;10.20;99.90;;;;;;5056174;28;20087;-58
2022/01/02 05:19:55;;;;;;;6.65;4.72;;;10.20;99.90;;;;;;5054471;28;20569;-58
2022/01/02 05:22:39;;;;;;;7.00;4.55;;;10.10;99.90;;;;;;5048486;28;20099;-57
2022/01/02 05:25:24;;;;;;;7.03;4.55;;;10.10;99.90;;;;;;5055862;28;20611;-58
2022/01/02 05:28:09;;;;;;;6.37;4.60;;;10.20;99.90;;;;;;5055804;28;20175;-59
2022/01/02 05:30:53;;;;;;;5.82;4.45;;;10.20;99.90;;;;;;5055668;28;20032;-58
2022/01/02 05:33:37;;;;;;;8.43;4.82;;;10.10;99.90;;;;;;5046493;28;20086;-57
2022/01/02 05:36:21;;;;;;;9.43;5.60;;;10.10;99.90;;;;;;5055089;28;20063;-57
2022/01/02 05:39:06;;;;;;;8.20;5.10;;;10.10;99.90;;;;;;5054777;28;20035;-57
2022/01/02 05:41:51;;;;;;;8.68;5.25;;;10.20;99.90;;;;;;5055974;28;20079;-54
2022/01/02 05:44:35;;;;;;;7.30;4.78;;;10.20;99.90;;;;;;5055070;28;20457;-57
2022/01/02 05:47:19;;;;;;;6.63;4.33;;;10.20;99.90;;;;;;5055482;28;20040;-55
2022/01/02 05:50:04;;;;;;;6.35;4.95;;;10.10;99.90;;;;;;5055184;28;20028;-54
2022/01/02 05:52:48;;;;;;;;;;;10.10;99.90;;;;;;5055546;28;20045;-56
2022/01/02 05:55:32;;;;;;;6.45;5.20;;;10.10;99.90;;;;;;5055608;28;19915;-59
2022/01/02 05:58:16;;;;;;;8.03;4.83;;;10.10;99.90;;;;;;5055040;28;20530;-55
2022/01/02 06:01:00;;;;;;;9.03;4.47;;;10.10;99.90;;;;;;5051207;28;20102;-55
2022/01/02 06:03:45;;;;;;;7.63;4.63;;;10.20;99.90;;;;;;5054380;28;20130;-54
2022/01/02 06:06:29;;;;;;;5.90;4.20;;;10.30;99.90;;;;;;5055121;28;20040;-54
2022/01/02 06:09:12;;;;;;;5.07;4.10;;;10.30;99.90;;;;;;5053998;28;20682;-51
2022/01/02 06:11:56;;;;;;;7.80;4.53;;;10.40;99.90;;;;;;5054175;28;20040;-53
2022/01/02 06:14:41;;;;;;;6.93;4.38;;;10.50;99.90;;;;;;5054488;28;20514;-53
2022/01/02 06:17:25;;;;;;;5.47;3.90;;;10.50;99.90;;;;;;5054694;28;20062;-55
2022/01/02 06:20:09;;;;;;;6.50;4.57;;;10.50;99.90;;;;;;5053483;28;20095;-53
2022/01/02 06:22:54;;;;;;;5.72;3.90;;;10.60;99.90;;;;;;5052993;28;20307;-53
2022/01/02 06:25:38;;;;;;;;;;;10.70;99.90;;;;;;5054943;28;20047;-55
2022/01/02 06:28:22;;;;;;;7.18;4.20;;;10.80;99.90;;;;;;5054798;28;19915;-58
2022/01/02 06:31:06;;;;;;;7.07;4.55;;;10.90;99.90;;;;;;5053996;28;20040;-55
2022/01/02 06:33:50;;;;;;;7.40;4.32;;;10.90;99.90;;;;;;5050911;28;20163;-57
2022/01/02 06:36:34;;;;;;;6.00;3.67;;;10.90;99.90;;;;;;5053202;28;20424;-55
2022/01/02 06:39:18;;;;;;;6.93;3.80;;;10.90;99.90;;;;;;5055731;28;20039;-56
2022/01/02 06:42:02;;;;;;;6.95;4.80;;;10.90;99.90;;;;;;5054561;28;20539;-56
2022/01/02 06:44:48;;;;;;;5.32;3.65;;;11.00;99.90;;;;;;5053571;28;20522;-55
2022/01/02 06:47:32;;;;;;;8.40;4.03;;;11.00;99.90;;;;;;5053289;28;20048;-55
2022/01/02 06:50:17;;;;;;;8.93;4.30;;;11.00;99.90;;;;;;5053636;28;20044;-55
2022/01/02 06:53:00;;;;;;;7.20;4.53;;;11.10;99.90;;;;;;5052009;28;20043;-53
2022/01/02 06:55:45;;;;;;;7.03;3.97;;;11.10;99.90;;;;;;5054718;28;20036;-52
2022/01/02 06:58:30;;;;;;;4.93;3.80;;;11.10;99.90;;;;;;5053737;28;20524;-53
2022/01/02 07:01:14;;;;;;;5.63;3.83;;;11.20;99.90;;;;;;5051788;28;20039;-54
2022/01/02 07:03:58;;;;;;;6.85;4.00;;;11.30;99.90;;;;;;5047814;28;20036;-54
2022/01/02 07:06:42;;;;;;;5.80;3.97;;;11.20;99.90;;;;;;5050141;28;20580;-51
2022/01/02 07:09:29;;;;;;;8.53;4.53;;;11.30;99.90;;;;;;5046928;28;20094;-52
2022/01/02 07:12:13;;;;;;;8.38;5.40;;;11.30;99.90;;;;;;5052742;28;20864;-55
2022/01/02 07:14:58;;;;;;;8.10;3.90;;;11.30;99.90;;;;;;5049814;28;20056;-53
2022/01/02 07:17:43;;;;;;;5.75;4.32;;;11.30;99.90;;;;;;5055909;28;20035;-55
2022/01/02 07:20:27;;;;;;;7.97;4.38;;;11.30;99.90;;;;;;5055907;28;20047;-54
2022/01/02 07:23:11;;;;;;;7.60;4.00;;;11.30;99.90;;;;;;5054244;28;20487;-56
2022/01/02 07:25:55;;;;;;;8.37;4.23;;;11.30;99.90;;;;;;5057039;28;20396;-54
2022/01/02 07:28:39;;;;;;;10.57;4.30;;;11.30;99.90;;;;;;5056393;28;20569;-54
2022/01/02 07:31:24;;;;;;;6.65;4.20;;;11.30;99.90;;;;;;5057683;28;20447;-54
2022/01/02 07:34:08;;;;;;;8.93;4.60;;;11.30;99.90;;;;;;5055587;28;20475;-55
2022/01/02 07:36:52;;;;;;;8.25;4.32;;;11.30;99.90;;;;;;5056811;28;20148;-52
2022/01/02 07:39:37;;;;;;;5.27;4.23;;;11.30;99.90;;;;;;5056826;28;20044;-54
2022/01/02 07:42:21;;;;;;;8.43;4.60;;;11.30;99.90;;;;;;5056785;28;20093;-55
2022/01/02 07:45:06;;;;;;;7.05;4.97;;;11.30;99.90;;;;;;5056896;28;20067;-53
2022/01/02 07:47:50;;;;;;;6.28;4.32;;;11.20;99.90;;;;;;5057871;28;20499;-56
2022/01/02 07:50:35;;;;;;;6.10;4.03;;;11.20;99.90;;;;;;5056458;28;20060;-62
2022/01/02 07:53:20;;;;;;;5.28;4.30;;;11.20;99.90;;;;;;5069560;28;20175;-55
2022/01/02 07:56:04;;;;;;;;;;;11.20;99.90;;;;;;5050321;28;20043;-55
2022/01/02 07:58:48;;;;;;;9.80;5.00;;;11.20;99.90;;;;;;5058033;28;19973;-54
2022/01/02 08:01:32;;;;;;;6.33;4.23;;;11.20;99.90;;;;;;5056311;28;20055;-54
2022/01/02 08:04:18;;;;;;;7.00;4.37;;;11.20;99.90;;;;;;5057523;28;20044;-54
2022/01/02 08:07:03;;;;;;;6.70;5.05;;;11.20;99.90;;;;;;5058158;28;20271;-53
2022/01/02 08:09:47;;;;;;;6.78;4.30;;;11.20;99.90;;;;;;5055998;28;20452;-54
2022/01/02 08:12:31;;;;;;;6.53;4.13;;;11.20;99.90;;;;;;5056737;28;20068;-53
2022/01/02 08:15:15;;;;;;;7.57;4.35;;;11.30;99.90;;;;;;5036706;28;20051;-57
2022/01/02 08:17:59;;;;;;;7.93;4.77;;;11.30;99.90;;;;;;5053349;28;20461;-61
2022/01/02 08:20:46;;;;;;;6.03;4.10;;;11.40;99.90;;;;;;5057189;28;20048;-59
2022/01/02 08:23:31;;;;;;;9.15;5.13;;;11.50;99.90;;;;;;5055578;28;20392;-56
2022/01/02 08:26:15;;;;;;;6.30;4.57;;;11.60;99.90;;;;;;5055346;28;20133;-59
2022/01/02 08:29:02;;;;;;;8.77;5.67;;;11.60;99.90;;;;;;5056259;28;20076;-57
2022/01/02 08:31:47;;;;;;;8.00;4.22;;;11.70;99.90;;;;;;5055472;28;20044;-56
2022/01/02 08:34:31;;;;;;;9.10;4.60;;;11.70;99.90;;;;;;5054734;28;20048;-56
2022/01/02 08:37:15;;;;;;;13.73;6.43;;;11.70;99.90;;;;;;5056197;28;20506;-55
2022/01/02 08:39:59;;;;;;;8.70;5.03;;;11.80;99.90;;;;;;5055231;28;20286;-52
2022/01/02 08:42:43;;;;;;;7.00;5.10;;;11.70;99.90;;;;;;5053836;28;20110;-57
2022/01/02 08:45:27;;;;;;;7.47;4.28;;;11.70;99.90;;;;;;5054995;28;20052;-53
2022/01/02 08:48:12;;;;;;;7.07;4.32;;;11.60;99.90;;;;;;5055296;28;20044;-56
2022/01/02 08:50:56;;;;;;;7.45;4.50;;;11.60;99.90;;;;;;5054774;28;20531;-60
2022/01/02 08:53:41;;;;;;;7.90;5.68;;;11.60;99.90;;;;;;5055755;28;20419;-55
2022/01/02 08:56:25;;;;;;;8.93;7.30;;;11.60;99.90;;;;;;5055255;28;20542;-57
2022/01/02 08:59:09;;;;;;;8.03;5.73;;;11.60;99.90;;;;;;5054906;28;20095;-55
2022/01/02 09:01:53;;;;;;;8.70;5.33;;;11.60;99.90;;;;;;5054609;28;20396;-60
2022/01/02 09:04:37;;;;;;;6.60;5.25;;;11.60;99.90;;;;;;5055652;28;20091;-56
2022/01/02 09:07:21;;;;;;;10.45;6.38;;;11.60;99.90;;;;;;5055843;28;20525;-53
2022/01/02 09:10:06;;;;;;;9.90;5.87;;;11.60;99.90;;;;;;5055762;28;20083;-54
2022/01/02 09:12:50;;;;;;;11.32;7.38;;;11.50;99.90;;;;;;5054654;28;20326;-55
2022/01/02 09:15:35;;;;;;;20.27;14.68;;;11.40;99.90;;;;;;5055369;28;20102;-53
2022/01/02 09:18:19;;;;;;;7.75;5.90;;;11.40;99.90;;;;;;5053939;28;20682;-58
2022/01/02 09:21:03;;;;;;;9.45;5.45;;;11.50;99.90;;;;;;5055002;28;20040;-54
2022/01/02 09:23:47;;;;;;;7.55;5.03;;;11.50;99.90;;;;;;5054571;28;20049;-53
2022/01/02 09:26:32;;;;;;;9.82;6.18;;;11.50;99.90;;;;;;5047656;28;20086;-57
2022/01/02 09:29:16;;;;;;;8.35;5.05;;;11.50;99.90;;;;;;5054632;28;20044;-55
2022/01/02 09:32:01;;;;;;;7.97;5.60;;;11.50;99.90;;;;;;5053670;28;20036;-56
2022/01/02 09:34:46;;;;;;;7.15;5.47;;;11.50;99.90;;;;;;5054292;28;20170;-61
2022/01/02 09:37:30;;;;;;;7.50;5.47;;;11.60;99.90;;;;;;5053928;28;20179;-58
2022/01/02 09:40:14;;;;;;;9.88;5.65;;;11.60;99.90;;;;;;5055319;28;20040;-55
2022/01/02 09:42:59;;;;;;;9.15;5.97;;;11.70;99.90;;;;;;5053997;28;20040;-56
2022/01/02 09:45:50;;;;;;;8.68;5.60;;;11.80;99.90;;;;;;5052987;28;20095;-53
2022/01/02 09:48:34;;;;;;;10.57;5.95;;;11.90;99.90;;;;;;5054064;28;20083;-57
2022/01/02 09:51:22;;;;;;;15.73;11.50;;;11.80;99.90;;;;;;5054675;28;20416;-54
2022/01/02 09:54:19;;;;;;;21.58;14.77;;;11.70;99.90;;;;;;5053887;28;20333;-54
2022/01/02 09:57:04;;;;;;;23.40;15.88;;;11.50;99.90;;;;;;5054732;28;20408;-54
2022/01/02 09:59:48;;;;;;;28.33;19.38;;;11.40;99.90;;;;;;5054145;28;20696;-57
2022/01/02 10:02:56;;;;;;;19.30;13.67;;;11.40;99.90;;;;;;5054060;28;20508;-58
2022/01/02 10:05:59;;;;;;;14.60;9.00;;;11.40;99.90;;;;;;5053627;28;20040;-55
2022/01/02 10:08:44;;;;;;;20.02;13.45;;;11.50;99.90;;;;;;5053211;28;20385;-58
2022/01/02 10:11:28;;;;;;;16.92;12.32;;;11.60;99.90;;;;;;5054809;28;20040;-58
2022/01/02 10:14:13;;;;;;;9.67;7.10;;;11.60;99.90;;;;;;5053406;28;20115;-65
2022/01/02 10:16:57;;;;;;;;;;;11.60;99.90;;;;;;5054026;28;20107;-58
2022/01/02 10:19:42;;;;;;;11.38;7.38;;;11.50;99.90;;;;;;5053646;28;20382;-63
2022/01/02 10:22:27;;;;;;;11.23;8.57;;;11.60;99.90;;;;;;5054313;28;20710;-54
2022/01/02 10:25:11;;;;;;;11.30;7.90;;;11.60;99.90;;;;;;5053464;28;20562;-53
2022/01/02 10:27:56;;;;;;;10.70;6.78;;;11.70;99.90;;;;;;5051271;28;20090;-57
2022/01/02 10:30:45;;;;;;;10.30;7.60;;;11.70;99.90;;;;;;5045617;28;20036;-59
2022/01/02 10:33:46;;;;;;;10.93;6.75;;;11.80;99.90;;;;;;5045426;28;20452;-56
2022/01/02 10:36:42;;;;;;;12.18;7.22;;;11.80;99.90;;;;;;5052482;28;20032;-54
2022/01/02 10:39:32;;;;;;;12.27;8.30;;;11.80;99.90;;;;;;5053291;28;20549;-56
2022/01/02 10:42:18;;;;;;;9.48;7.38;;;11.80;99.90;;;;;;5053048;28;20124;-56
2022/01/02 10:45:02;;;;;;;10.48;6.85;;;12.00;99.90;;;;;;5053331;28;20443;-57
2022/01/02 10:47:46;;;;;;;9.50;5.82;;;12.00;99.90;;;;;;5052217;28;20196;-52
2022/01/02 10:50:30;;;;;;;13.43;7.28;;;12.10;99.90;;;;;;5052649;28;20602;-57
2022/01/02 10:53:17;;;;;;;8.77;6.13;;;12.10;99.90;;;;;;5052134;28;20032;-57
2022/01/02 10:56:03;;;;;;;11.95;6.93;;;12.20;99.90;;;;;;5053380;28;20060;-57
2022/01/02 10:58:48;;;;;;;10.93;6.65;;;12.30;99.90;;;;;;5059838;28;20547;-53
2022/01/02 11:01:32;;;;;;;9.13;6.30;;;12.30;99.90;;;;;;5044850;28;20039;-54
2022/01/02 11:04:17;;;;;;;9.07;6.68;;;12.30;99.90;;;;;;5062349;28;20032;-54
2022/01/02 11:07:04;;;;;;;10.65;6.68;;;12.40;99.90;;;;;;5052777;28;20110;-54
2022/01/02 11:09:53;;;;;;;10.18;7.22;;;12.50;99.90;;;;;;5053377;28;20060;-56
2022/01/02 11:12:39;;;;;;;10.68;6.50;;;12.50;99.90;;;;;;5052979;28;20044;-57
2022/01/02 11:15:28;;;;;;;9.70;5.85;;;12.50;99.90;;;;;;5051749;28;20034;-53
2022/01/02 11:18:13;;;;;;;10.50;6.28;;;12.60;99.90;;;;;;5031697;28;20041;-57
2022/01/02 11:20:57;;;;;;;10.82;6.80;;;12.60;99.90;;;;;;5038773;28;20460;-54
2022/01/02 11:24:00;;;;;;;11.52;6.90;;;12.60;99.90;;;;;;5052003;28;20036;-56
2022/01/02 11:27:04;;;;;;;10.05;6.13;;;12.60;99.90;;;;;;5069017;28;20039;-54
2022/01/02 11:29:49;;;;;;;8.02;5.32;;;12.80;99.90;;;;;;5051383;28;20070;-55
2022/01/02 11:32:33;;;;;;;7.95;4.85;;;12.80;99.90;;;;;;5038201;28;20494;-55
2022/01/02 11:35:27;;;;;;;9.23;5.57;;;12.80;99.90;;;;;;5051204;28;20087;-58
2022/01/02 11:38:12;;;;;;;6.93;4.90;;;12.80;99.90;;;;;;5049857;28;20021;-56
2022/01/02 11:40:57;;;;;;;7.35;4.97;;;12.70;99.90;;;;;;5051996;28;20031;-61
2022/01/02 11:43:47;;;;;;;9.43;5.28;;;12.60;99.90;;;;;;5052020;28;20063;-57
2022/01/02 11:46:39;;;;;;;8.95;5.63;;;12.60;99.90;;;;;;5052380;28;20024;-56
2022/01/02 11:49:41;;;;;;;8.77;5.30;;;12.60;99.90;;;;;;5051640;28;20044;-59
2022/01/02 11:52:26;;;;;;;7.55;5.07;;;12.50;99.90;;;;;;5053016;28;20071;-58
2022/01/02 11:55:16;;;;;;;8.20;5.30;;;12.50;99.90;;;;;;5065147;28;20040;-59
2022/01/02 11:58:00;;;;;;;15.15;5.68;;;12.50;99.90;;;;;;5052555;28;20400;-55
2022/01/02 12:00:48;;;;;;;7.65;5.20;;;12.50;99.90;;;;;;5053340;28;20039;-61
2022/01/02 12:03:38;;;;;;;8.48;5.03;;;12.40;99.90;;;;;;5056207;28;20086;-60
2022/01/02 12:06:34;;;;;;;10.50;4.78;;;12.50;99.90;;;;;;5055835;28;20036;-57
2022/01/02 12:09:37;;;;;;;9.20;4.63;;;12.40;99.90;;;;;;5055096;28;20119;-55
2022/01/02 12:12:22;;;;;;;6.53;4.70;;;12.40;99.90;;;;;;5041860;28;20116;-54
2022/01/02 12:15:06;;;;;;;7.18;4.50;;;12.50;99.90;;;;;;5055516;28;20056;-53
2022/01/02 12:18:16;;;;;;;8.63;4.60;;;12.50;99.90;;;;;;5056439;28;20090;-55
2022/01/02 12:21:06;;;;;;;8.30;4.30;;;12.40;99.90;;;;;;5054536;28;20074;-56
2022/01/02 12:23:53;;;;;;;13.13;5.10;;;12.40;99.90;;;;;;5034983;28;20114;-58
2022/01/02 12:26:39;;;;;;;10.63;5.93;;;12.40;99.90;;;;;;5053057;28;20052;-55
2022/01/02 12:29:25;;;;;;;10.23;4.93;;;12.40;99.90;;;;;;5055191;28;20040;-55
2022/01/02 12:32:10;;;;;;;13.52;4.75;;;12.30;99.90;;;;;;5055281;28;20096;-60
2022/01/02 12:34:57;;;;;;;8.63;5.25;;;12.40;99.90;;;;;;5050884;28;20166;-59
2022/01/02 12:37:42;;;;;;;8.13;4.97;;;12.40;99.90;;;;;;5054915;28;20090;-60
2022/01/02 12:40:26;;;;;;;8.68;4.95;;;12.50;99.90;;;;;;5054079;28;20043;-56
2022/01/02 12:43:11;;;;;;;6.75;4.50;;;12.50;99.90;;;;;;5053943;28;20091;-59
2022/01/02 12:45:55;;;;;;;8.82;4.50;;;12.50;99.90;;;;;;5055135;28;20055;-59
2022/01/02 12:48:39;;;;;;;7.15;4.65;;;12.50;99.90;;;;;;5055155;28;20035;-61
2022/01/02 12:51:29;;;;;;;13.65;4.65;;;12.50;99.90;;;;;;5055804;28;20036;-60
2022/01/02 12:54:15;;;;;;;6.35;4.60;;;12.60;99.90;;;;;;5054446;28;20078;-55
2022/01/02 12:57:02;;;;;;;10.13;5.50;;;12.60;99.90;;;;;;5054737;28;20048;-61
2022/01/02 12:59:48;;;;;;;16.70;7.82;;;12.50;99.90;;;;;;5035660;28;20138;-59
2022/01/02 13:02:32;;;;;;;7.97;5.40;;;12.60;99.90;;;;;;5054234;28;20558;-60
2022/01/02 13:05:16;;;;;;;7.30;4.90;;;12.70;99.90;;;;;;5053919;28;20086;-56
2022/01/02 13:08:02;;;;;;;7.13;4.63;;;12.80;99.90;;;;;;5054107;28;20255;-60
2022/01/02 13:10:46;;;;;;;8.60;4.75;;;12.80;99.90;;;;;;5054733;28;20032;-57
2022/01/02 13:13:31;;;;;;;10.40;4.90;;;12.80;99.90;;;;;;5053116;28;20469;-61
2022/01/02 13:16:15;;;;;;;7.22;4.80;;;12.90;99.90;;;;;;5051057;28;20040;-61
2022/01/02 13:18:59;;;;;;;9.75;5.50;;;12.90;99.90;;;;;;5054767;28;20036;-59
2022/01/02 13:21:43;;;;;;;6.30;4.80;;;12.90;99.90;;;;;;5054965;28;20083;-62
2022/01/02 13:24:31;;;;;;;9.05;4.50;;;12.90;99.90;;;;;;5054261;28;20342;-59
2022/01/02 13:27:16;;;;;;;10.50;7.07;;;12.90;99.90;;;;;;5054536;28;20028;-63
2022/01/02 13:30:05;;;;;;;7.30;4.95;;;13.00;99.90;;;;;;5053505;28;20063;-56
2022/01/02 13:32:50;;;;;;;14.18;5.60;;;12.90;99.90;;;;;;5053057;28;20124;-62
2022/01/02 13:35:34;;;;;;;8.00;4.85;;;12.90;99.90;;;;;;5054458;28;20111;-61
2022/01/02 13:38:19;;;;;;;7.75;4.80;;;13.10;99.90;;;;;;5054669;28;20067;-62
2022/01/02 13:41:10;;;;;;;7.90;4.78;;;13.10;99.90;;;;;;5034765;28;20059;-58
2022/01/02 13:43:55;;;;;;;6.70;5.00;;;13.00;99.90;;;;;;5032876;28;20040;-60
2022/01/02 13:46:53;;;;;;;12.55;7.22;;;12.90;99.90;;;;;;5041459;28;20052;-58
2022/01/02 13:49:48;;;;;;;9.80;4.82;;;13.00;99.90;;;;;;5054481;28;20495;-60
2022/01/02 13:52:58;;;;;;;7.03;4.70;;;12.90;99.90;;;;;;5054552;28;20032;-59
2022/01/02 13:55:45;;;;;;;6.22;4.63;;;12.90;99.90;;;;;;5033860;28;20095;-58
2022/01/02 13:58:29;;;;;;;8.32;4.80;;;13.00;99.90;;;;;;5047110;28;20059;-59
2022/01/02 14:01:19;;;;;;;6.47;4.57;;;13.20;99.90;;;;;;5054044;28;20090;-58
2022/01/02 14:04:09;;;;;;;5.78;4.82;;;13.60;99.90;;;;;;5054007;28;20400;-62
2022/01/02 14:06:53;;;;;;;5.90;4.18;;;14.00;99.80;;;;;;5053044;28;20032;-58
2022/01/02 14:09:50;;;;;;;6.88;5.13;;;14.20;99.20;;;;;;5054013;28;20534;-58
2022/01/02 14:12:36;;;;;;;6.55;4.25;;;14.20;98.80;;;;;;5053952;28;20467;-59
2022/01/02 14:15:27;;;;;;;5.18;3.95;;;14.50;98.60;;;;;;5054177;28;20079;-58
2022/01/02 14:18:11;;;;;;;7.70;4.80;;;15.00;97.60;;;;;;5053596;28;20091;-57
2022/01/02 14:21:00;;;;;;;6.73;4.70;;;15.50;97.00;;;;;;5052925;28;20040;-58
2022/01/02 14:23:44;;;;;;;5.10;4.40;;;16.00;96.30;;;;;;5051955;28;20090;-58
2022/01/02 14:26:28;;;;;;;5.82;4.60;;;16.60;95.70;;;;;;5053010;28;20055;-58
2022/01/02 14:29:12;;;;;;;4.93;4.35;;;16.90;94.00;;;;;;5053607;28;20086;-59
2022/01/02 14:31:56;;;;;;;7.13;4.28;;;16.20;94.50;;;;;;5053620;28;20032;-57